sensor_id;sensor_type;location;lat;lon;timestamp;temperature;humidity
59208;DHT22;44977;53.132;6.408;2022-09-17T00:03:11;11.10;99.90
59208;DHT22;44977;53.132;6.408;2022-09-17T00:08:13;11.10;99.90
59208;DHT22;44977;53.132;6.408;2022-09-17T00:13:14;11.30;99.90
59208;DHT22;44977;53.132;6.408;2022-09-17T00:18:15;11.30;99.90
59208;DHT22;44977;53.132;6.408;2022-09-17T00:23:16;11.30;99.90
59208;DHT22;44977;53.132;6.408;2022-09-17T00:28:16;11.20;99.90
59208;DHT22;44977;53.132;6.408;2022-09-17T00:33:17;11.20;99.90
59208;DHT22;44977;53.132;6.408;2022-09-17T00:38:19;11.10;99.90
59208;DHT22;44977;53.132;6.408;2022-09-17T00:43:45;11.10;99.90
59208;DHT22;44977;53.132;6.408;2022-09-17T00:48:47;11.10;99.90
59208;DHT22;44977;53.132;6.408;2022-09-17T00:53:48;11.00;99.90
59208;DHT22;44977;53.132;6.408;2022-09-17T00:58:51;10.90;99.90
59208;DHT22;44977;53.132;6.408;2022-09-17T01:03:52;10.90;99.90
59208;DHT22;44977;53.132;6.408;2022-09-17T01:14:13;10.80;99.90
59208;DHT22;44977;53.132;6.408;2022-09-17T01:35:10;10.50;99.90
59208;DHT22;44977;53.132;6.408;2022-09-17T01:40:35;10.40;99.90
59208;DHT22;44977;53.132;6.408;2022-09-17T01:45:47;10.40;99.90
59208;DHT22;44977;53.132;6.408;2022-09-17T01:51:08;10.30;99.90
59208;DHT22;44977;53.132;6.408;2022-09-17T01:56:13;10.30;99.90
59208;DHT22;44977;53.132;6.408;2022-09-17T02:01:18;10.30;99.90
59208;DHT22;44977;53.132;6.408;2022-09-17T02:06:25;10.30;99.90
59208;DHT22;44977;53.132;6.408;2022-09-17T02:11:31;10.30;99.90
59208;DHT22;44977;53.132;6.408;2022-09-17T02:16:39;10.20;99.90
59208;DHT22;44977;53.132;6.408;2022-09-17T02:21:49;10.20;99.90
59208;DHT22;44977;53.132;6.408;2022-09-17T02:27:10;10.20;99.90
59208;DHT22;44977;53.132;6.408;2022-09-17T02:32:14;10.50;99.90
59208;DHT22;44977;53.132;6.408;2022-09-17T02:37:15;10.50;99.90
59208;DHT22;44977;53.132;6.408;2022-09-17T03:03:58;10.40;99.90
59208;DHT22;44977;53.132;6.408;2022-09-17T03:09:01;10.40;99.90
59208;DHT22;44977;53.132;6.408;2022-09-17T03:14:02;10.40;99.90
59208;DHT22;44977;53.132;6.408;2022-09-17T03:19:03;10.40;99.90
59208;DHT22;44977;53.132;6.408;2022-09-17T03:24:03;10.40;99.90
59208;DHT22;44977;53.132;6.408;2022-09-17T03:29:04;10.40;99.90
59208;DHT22;44977;53.132;6.408;2022-09-17T03:34:05;10.40;99.90
59208;DHT22;44977;53.132;6.408;2022-09-17T03:39:06;10.40;99.90
59208;DHT22;44977;53.132;6.408;2022-09-17T03:44:07;10.50;99.90
59208;DHT22;44977;53.132;6.408;2022-09-17T03:49:09;10.50;99.90
59208;DHT22;44977;53.132;6.408;2022-09-17T03:54:10;10.50;99.90
59208;DHT22;44977;53.132;6.408;2022-09-17T03:59:11;10.50;99.90
59208;DHT22;44977;53.132;6.408;2022-09-17T04:04:12;10.40;99.90
59208;DHT22;44977;53.132;6.408;2022-09-17T04:09:13;10.40;99.90
59208;DHT22;44977;53.132;6.408;2022-09-17T04:14:13;10.40;99.90
59208;DHT22;44977;53.132;6.408;2022-09-17T04:19:14;10.30;99.90
59208;DHT22;44977;53.132;6.408;2022-09-17T04:24:15;10.30;99.90
59208;DHT22;44977;53.132;6.408;2022-09-17T04:29:16;10.30;99.90
59208;DHT22;44977;53.132;6.408;2022-09-17T04:34:16;10.30;99.90
59208;DHT22;44977;53.132;6.408;2022-09-17T04:39:17;10.20;99.90
59208;DHT22;44977;53.132;6.408;2022-09-17T04:44:18;10.20;99.90
59208;DHT22;44977;53.132;6.408;2022-09-17T04:49:19;10.20;99.90
59208;DHT22;44977;53.132;6.408;2022-09-17T04:54:19;10.20;99.90
59208;DHT22;44977;53.132;6.408;2022-09-17T04:59:20;10.20;99.90
59208;DHT22;44977;53.132;6.408;2022-09-17T05:04:21;10.20;99.90
59208;DHT22;44977;53.132;6.408;2022-09-17T05:09:21;10.10;99.90
59208;DHT22;44977;53.132;6.408;2022-09-17T05:14:22;10.10;99.90
59208;DHT22;44977;53.132;6.408;2022-09-17T05:19:23;10.10;99.90
59208;DHT22;44977;53.132;6.408;2022-09-17T05:24:24;10.10;99.90
59208;DHT22;44977;53.132;6.408;2022-09-17T05:29:24;10.20;99.90
59208;DHT22;44977;53.132;6.408;2022-09-17T05:34:25;10.20;99.90
59208;DHT22;44977;53.132;6.408;2022-09-17T05:39:26;10.30;99.90
59208;DHT22;44977;53.132;6.408;2022-09-17T05:44:26;10.40;99.90
59208;DHT22;44977;53.132;6.408;2022-09-17T05:49:27;10.40;99.90
59208;DHT22;44977;53.132;6.408;2022-09-17T05:54:28;10.30;99.90
59208;DHT22;44977;53.132;6.408;2022-09-17T05:59:29;10.30;99.90
59208;DHT22;44977;53.132;6.408;2022-09-17T06:04:29;10.20;99.90
59208;DHT22;44977;53.132;6.408;2022-09-17T06:09:30;10.10;99.90
59208;DHT22;44977;53.132;6.408;2022-09-17T06:14:31;10.10;99.90
59208;DHT22;44977;53.132;6.408;2022-09-17T06:19:31;10.00;99.90
59208;DHT22;44977;53.132;6.408;2022-09-17T06:24:33;10.10;99.90
59208;DHT22;44977;53.132;6.408;2022-09-17T06:29:33;10.10;99.90
59208;DHT22;44977;53.132;6.408;2022-09-17T06:34:34;10.10;99.90
59208;DHT22;44977;53.132;6.408;2022-09-17T06:39:35;10.00;99.90
59208;DHT22;44977;53.132;6.408;2022-09-17T06:44:36;10.20;99.90
59208;DHT22;44977;53.132;6.408;2022-09-17T06:49:36;10.40;99.90
59208;DHT22;44977;53.132;6.408;2022-09-17T06:54:37;10.50;99.90
59208;DHT22;44977;53.132;6.408;2022-09-17T06:59:38;10.50;99.90
59208;DHT22;44977;53.132;6.408;2022-09-17T07:04:39;10.60;99.90
59208;DHT22;44977;53.132;6.408;2022-09-17T07:09:39;10.80;99.90
59208;DHT22;44977;53.132;6.408;2022-09-17T07:14:40;10.90;99.90
59208;DHT22;44977;53.132;6.408;2022-09-17T07:19:41;11.00;99.90
59208;DHT22;44977;53.132;6.408;2022-09-17T07:24:41;11.00;99.90
59208;DHT22;44977;53.132;6.408;2022-09-17T07:29:42;11.30;99.90
59208;DHT22;44977;53.132;6.408;2022-09-17T07:34:43;11.60;99.90
59208;DHT22;44977;53.132;6.408;2022-09-17T07:39:43;11.90;99.90
59208;DHT22;44977;53.132;6.408;2022-09-17T07:44:44;12.30;99.90
59208;DHT22;44977;53.132;6.408;2022-09-17T07:49:46;12.50;99.90
59208;DHT22;44977;53.132;6.408;2022-09-17T07:54:46;12.80;99.90
59208;DHT22;44977;53.132;6.408;2022-09-17T07:59:47;13.00;99.90
59208;DHT22;44977;53.132;6.408;2022-09-17T08:04:48;13.20;99.90
59208;DHT22;44977;53.132;6.408;2022-09-17T08:09:50;13.10;99.90
59208;DHT22;44977;53.132;6.408;2022-09-17T08:14:50;12.90;99.90
59208;DHT22;44977;53.132;6.408;2022-09-17T08:19:51;12.70;99.90
59208;DHT22;44977;53.132;6.408;2022-09-17T08:24:52;12.30;99.90
59208;DHT22;44977;53.132;6.408;2022-09-17T08:29:52;12.10;99.90
59208;DHT22;44977;53.132;6.408;2022-09-17T08:34:53;12.10;99.90
59208;DHT22;44977;53.132;6.408;2022-09-17T08:39:54;12.10;99.90
59208;DHT22;44977;53.132;6.408;2022-09-17T08:44:55;12.20;99.90
59208;DHT22;44977;53.132;6.408;2022-09-17T08:50:01;12.40;99.90
59208;DHT22;44977;53.132;6.408;2022-09-17T09:00:13;12.80;99.90
59208;DHT22;44977;53.132;6.408;2022-09-17T09:05:22;12.70;99.90
59208;DHT22;44977;53.132;6.408;2022-09-17T09:10:35;12.70;99.90
59208;DHT22;44977;53.132;6.408;2022-09-17T09:15:53;13.00;99.90
59208;DHT22;44977;53.132;6.408;2022-09-17T09:26:16;13.70;99.90
59208;DHT22;44977;53.132;6.408;2022-09-17T09:31:26;13.90;99.90
59208;DHT22;44977;53.132;6.408;2022-09-17T09:36:32;14.20;99.90
59208;DHT22;44977;53.132;6.408;2022-09-17T09:41:44;14.10;99.90
59208;DHT22;44977;53.132;6.408;2022-09-17T10:03:22;14.20;99.90
59208;DHT22;44977;53.132;6.408;2022-09-17T10:08:24;14.40;99.90
59208;DHT22;44977;53.132;6.408;2022-09-17T10:13:26;14.30;99.90
59208;DHT22;44977;53.132;6.408;2022-09-17T10:18:27;14.20;99.90
59208;DHT22;44977;53.132;6.408;2022-09-17T10:23:31;14.30;99.90
59208;DHT22;44977;53.132;6.408;2022-09-17T10:28:42;14.60;99.90
59208;DHT22;44977;53.132;6.408;2022-09-17T10:33:58;14.90;99.90
59208;DHT22;44977;53.132;6.408;2022-09-17T10:44:32;14.80;99.90
59208;DHT22;44977;53.132;6.408;2022-09-17T10:49:37;14.60;99.90
59208;DHT22;44977;53.132;6.408;2022-09-17T10:54:59;14.10;99.90
59208;DHT22;44977;53.132;6.408;2022-09-17T11:00:19;13.40;99.90
59208;DHT22;44977;53.132;6.408;2022-09-17T11:06:03;13.40;99.90
59208;DHT22;44977;53.132;6.408;2022-09-17T11:22:29;13.50;99.90
59208;DHT22;44977;53.132;6.408;2022-09-17T11:27:33;13.60;99.90
59208;DHT22;44977;53.132;6.408;2022-09-17T11:32:45;13.80;99.90
59208;DHT22;44977;53.132;6.408;2022-09-17T11:38:13;13.90;99.90
59208;DHT22;44977;53.132;6.408;2022-09-17T11:48:42;13.80;99.90
59208;DHT22;44977;53.132;6.408;2022-09-17T11:53:50;13.90;99.90
59208;DHT22;44977;53.132;6.408;2022-09-17T11:59:10;14.00;99.90
59208;DHT22;44977;53.132;6.408;2022-09-17T12:04:39;14.10;99.90
59208;DHT22;44977;53.132;6.408;2022-09-17T12:09:42;14.40;99.90
59208;DHT22;44977;53.132;6.408;2022-09-17T12:15:06;14.70;99.90
59208;DHT22;44977;53.132;6.408;2022-09-17T12:20:34;15.00;99.90
59208;DHT22;44977;53.132;6.408;2022-09-17T12:25:51;15.30;99.90
59208;DHT22;44977;53.132;6.408;2022-09-17T12:31:01;15.30;99.90
59208;DHT22;44977;53.132;6.408;2022-09-17T12:52:21;15.60;99.90
59208;DHT22;44977;53.132;6.408;2022-09-17T12:57:28;15.60;99.90
59208;DHT22;44977;53.132;6.408;2022-09-17T13:02:39;15.70;99.90
59208;DHT22;44977;53.132;6.408;2022-09-17T13:18:22;16.10;99.90
59208;DHT22;44977;53.132;6.408;2022-09-17T13:23:40;16.10;99.90
59208;DHT22;44977;53.132;6.408;2022-09-17T13:28:50;16.00;99.20
59208;DHT22;44977;53.132;6.408;2022-09-17T13:33:57;15.90;99.90
59208;DHT22;44977;53.132;6.408;2022-09-17T13:39:02;16.00;97.20
59208;DHT22;44977;53.132;6.408;2022-09-17T13:44:04;15.90;94.20
59208;DHT22;44977;53.132;6.408;2022-09-17T13:49:14;15.80;95.20
59208;DHT22;44977;53.132;6.408;2022-09-17T13:54:17;15.60;96.10
59208;DHT22;44977;53.132;6.408;2022-09-17T13:59:24;15.60;99.90
59208;DHT22;44977;53.132;6.408;2022-09-17T14:09:57;15.70;99.90
59208;DHT22;44977;53.132;6.408;2022-09-17T14:14:58;15.80;99.90
59208;DHT22;44977;53.132;6.408;2022-09-17T14:19:59;15.90;99.90
59208;DHT22;44977;53.132;6.408;2022-09-17T14:25:01;15.90;99.90
59208;DHT22;44977;53.132;6.408;2022-09-17T14:30:14;15.60;99.90
59208;DHT22;44977;53.132;6.408;2022-09-17T14:35:40;15.10;99.90
59208;DHT22;44977;53.132;6.408;2022-09-17T14:40:44;14.80;99.90
59208;DHT22;44977;53.132;6.408;2022-09-17T14:45:49;14.50;99.90
59208;DHT22;44977;53.132;6.408;2022-09-17T14:50:52;14.40;99.90
59208;DHT22;44977;53.132;6.408;2022-09-17T14:55:52;14.40;99.90
59208;DHT22;44977;53.132;6.408;2022-09-17T15:00:53;14.50;99.90
59208;DHT22;44977;53.132;6.408;2022-09-17T15:05:54;14.40;99.90
59208;DHT22;44977;53.132;6.408;2022-09-17T15:11:05;14.30;99.90
59208;DHT22;44977;53.132;6.408;2022-09-17T15:16:27;14.20;99.90
59208;DHT22;44977;53.132;6.408;2022-09-17T15:26:33;13.70;99.90
59208;DHT22;44977;53.132;6.408;2022-09-17T15:31:35;13.60;99.90
59208;DHT22;44977;53.132;6.408;2022-09-17T15:36:36;13.60;99.90
59208;DHT22;44977;53.132;6.408;2022-09-17T15:41:37;13.70;99.90
59208;DHT22;44977;53.132;6.408;2022-09-17T15:46:39;13.80;99.90
59208;DHT22;44977;53.132;6.408;2022-09-17T15:51:39;13.80;99.90
59208;DHT22;44977;53.132;6.408;2022-09-17T15:56:41;13.90;99.90
59208;DHT22;44977;53.132;6.408;2022-09-17T16:06:52;14.10;99.90
59208;DHT22;44977;53.132;6.408;2022-09-17T16:11:54;14.00;99.90
59208;DHT22;44977;53.132;6.408;2022-09-17T16:16:54;13.90;99.90
59208;DHT22;44977;53.132;6.408;2022-09-17T16:21:55;14.00;99.90
59208;DHT22;44977;53.132;6.408;2022-09-17T16:26:56;13.90;99.90
59208;DHT22;44977;53.132;6.408;2022-09-17T16:31:57;13.90;99.90
59208;DHT22;44977;53.132;6.408;2022-09-17T16:36:58;13.80;99.90
59208;DHT22;44977;53.132;6.408;2022-09-17T16:41:58;13.80;99.90
59208;DHT22;44977;53.132;6.408;2022-09-17T16:46:59;13.70;99.90
59208;DHT22;44977;53.132;6.408;2022-09-17T16:52:00;13.60;99.90
59208;DHT22;44977;53.132;6.408;2022-09-17T16:57:01;13.50;99.90
59208;DHT22;44977;53.132;6.408;2022-09-17T17:02:02;13.40;99.90
59208;DHT22;44977;53.132;6.408;2022-09-17T17:07:02;13.30;99.90
59208;DHT22;44977;53.132;6.408;2022-09-17T17:12:03;13.30;99.90
59208;DHT22;44977;53.132;6.408;2022-09-17T17:17:04;13.30;99.90
59208;DHT22;44977;53.132;6.408;2022-09-17T17:22:05;13.10;99.90
59208;DHT22;44977;53.132;6.408;2022-09-17T17:27:08;13.00;99.90
59208;DHT22;44977;53.132;6.408;2022-09-17T17:32:09;13.00;99.90
59208;DHT22;44977;53.132;6.408;2022-09-17T17:37:09;12.90;99.90
59208;DHT22;44977;53.132;6.408;2022-09-17T17:42:11;12.90;99.90
59208;DHT22;44977;53.132;6.408;2022-09-17T17:47:12;12.80;99.90
59208;DHT22;44977;53.132;6.408;2022-09-17T17:52:13;12.70;99.90
59208;DHT22;44977;53.132;6.408;2022-09-17T17:57:13;12.70;99.90
59208;DHT22;44977;53.132;6.408;2022-09-17T18:02:14;12.60;99.90
59208;DHT22;44977;53.132;6.408;2022-09-17T18:07:15;12.50;99.90
59208;DHT22;44977;53.132;6.408;2022-09-17T18:12:15;12.40;99.90
59208;DHT22;44977;53.132;6.408;2022-09-17T18:17:16;12.30;99.90
59208;DHT22;44977;53.132;6.408;2022-09-17T18:22:17;12.20;99.90
59208;DHT22;44977;53.132;6.408;2022-09-17T18:27:18;12.10;99.90
59208;DHT22;44977;53.132;6.408;2022-09-17T18:32:19;12.00;99.90
59208;DHT22;44977;53.132;6.408;2022-09-17T18:37:23;12.00;99.90
59208;DHT22;44977;53.132;6.408;2022-09-17T18:42:24;11.90;99.90
59208;DHT22;44977;53.132;6.408;2022-09-17T18:47:25;11.90;99.90
59208;DHT22;44977;53.132;6.408;2022-09-17T18:52:26;11.80;99.90
59208;DHT22;44977;53.132;6.408;2022-09-17T18:57:27;11.80;99.90
59208;DHT22;44977;53.132;6.408;2022-09-17T19:02:28;11.80;99.90
59208;DHT22;44977;53.132;6.408;2022-09-17T19:07:29;11.80;99.90
59208;DHT22;44977;53.132;6.408;2022-09-17T19:12:29;11.70;99.90
59208;DHT22;44977;53.132;6.408;2022-09-17T19:17:30;11.70;99.90
59208;DHT22;44977;53.132;6.408;2022-09-17T19:22:32;11.60;99.90
59208;DHT22;44977;53.132;6.408;2022-09-17T19:27:33;11.50;99.90
59208;DHT22;44977;53.132;6.408;2022-09-17T19:32:34;11.50;99.90
59208;DHT22;44977;53.132;6.408;2022-09-17T19:37:35;11.40;99.90
59208;DHT22;44977;53.132;6.408;2022-09-17T19:42:36;11.40;99.90
59208;DHT22;44977;53.132;6.408;2022-09-17T19:47:37;11.40;99.90
59208;DHT22;44977;53.132;6.408;2022-09-17T19:52:39;11.40;99.90
59208;DHT22;44977;53.132;6.408;2022-09-17T19:57:40;11.40;99.90
59208;DHT22;44977;53.132;6.408;2022-09-17T20:02:41;11.40;99.90
59208;DHT22;44977;53.132;6.408;2022-09-17T20:07:42;11.40;99.90
59208;DHT22;44977;53.132;6.408;2022-09-17T20:12:42;11.40;99.90
59208;DHT22;44977;53.132;6.408;2022-09-17T20:17:43;11.40;99.90
59208;DHT22;44977;53.132;6.408;2022-09-17T20:22:44;11.30;99.90
59208;DHT22;44977;53.132;6.408;2022-09-17T20:27:45;11.30;99.90
59208;DHT22;44977;53.132;6.408;2022-09-17T20:32:45;11.30;99.90
59208;DHT22;44977;53.132;6.408;2022-09-17T20:37:47;11.30;99.90
59208;DHT22;44977;53.132;6.408;2022-09-17T20:42:48;11.20;99.90
59208;DHT22;44977;53.132;6.408;2022-09-17T20:47:48;11.20;99.90
59208;DHT22;44977;53.132;6.408;2022-09-17T20:52:52;11.20;99.90
59208;DHT22;44977;53.132;6.408;2022-09-17T20:57:53;11.20;99.90
59208;DHT22;44977;53.132;6.408;2022-09-17T21:02:54;11.10;99.90
59208;DHT22;44977;53.132;6.408;2022-09-17T21:07:56;11.10;99.90
59208;DHT22;44977;53.132;6.408;2022-09-17T21:12:56;11.10;99.90
59208;DHT22;44977;53.132;6.408;2022-09-17T21:17:58;11.10;99.90
59208;DHT22;44977;53.132;6.408;2022-09-17T21:22:58;11.00;99.90
59208;DHT22;44977;53.132;6.408;2022-09-17T21:27:59;11.00;99.90
59208;DHT22;44977;53.132;6.408;2022-09-17T21:33:00;10.90;99.90
59208;DHT22;44977;53.132;6.408;2022-09-17T21:38:01;10.80;99.90
59208;DHT22;44977;53.132;6.408;2022-09-17T21:43:01;10.80;99.90
59208;DHT22;44977;53.132;6.408;2022-09-17T21:48:02;10.70;99.90
59208;DHT22;44977;53.132;6.408;2022-09-17T21:53:03;10.70;99.90
59208;DHT22;44977;53.132;6.408;2022-09-17T21:58:04;10.70;99.90
59208;DHT22;44977;53.132;6.408;2022-09-17T22:03:04;10.60;99.90
59208;DHT22;44977;53.132;6.408;2022-09-17T22:08:05;10.50;99.90
59208;DHT22;44977;53.132;6.408;2022-09-17T22:13:06;10.50;99.90
59208;DHT22;44977;53.132;6.408;2022-09-17T22:18:07;10.40;99.90
59208;DHT22;44977;53.132;6.408;2022-09-17T22:23:07;10.30;99.90
59208;DHT22;44977;53.132;6.408;2022-09-17T22:28:08;10.30;99.90
59208;DHT22;44977;53.132;6.408;2022-09-17T22:33:12;10.20;99.90
59208;DHT22;44977;53.132;6.408;2022-09-17T22:38:13;10.20;99.90
59208;DHT22;44977;53.132;6.408;2022-09-17T22:43:13;10.20;99.90
59208;DHT22;44977;53.132;6.408;2022-09-17T22:48:14;10.10;99.90
59208;DHT22;44977;53.132;6.408;2022-09-17T22:53:15;10.10;99.90
59208;DHT22;44977;53.132;6.408;2022-09-17T22:58:16;10.10;99.90
59208;DHT22;44977;53.132;6.408;2022-09-17T23:03:21;10.10;99.90
59208;DHT22;44977;53.132;6.408;2022-09-17T23:08:22;10.00;99.90
59208;DHT22;44977;53.132;6.408;2022-09-17T23:13:23;10.00;99.90
59208;DHT22;44977;53.132;6.408;2022-09-17T23:18:23;10.00;99.90
59208;DHT22;44977;53.132;6.408;2022-09-17T23:23:25;10.00;99.90
59208;DHT22;44977;53.132;6.408;2022-09-17T23:28:26;10.10;99.90
59208;DHT22;44977;53.132;6.408;2022-09-17T23:33:27;10.10;99.90
59208;DHT22;44977;53.132;6.408;2022-09-17T23:38:29;10.10;99.90
59208;DHT22;44977;53.132;6.408;2022-09-17T23:43:30;10.10;99.90
59208;DHT22;44977;53.132;6.408;2022-09-17T23:48:30;10.10;99.90
59208;DHT22;44977;53.132;6.408;2022-09-17T23:53:32;10.00;99.90
59208;DHT22;44977;53.132;6.408;2022-09-17T23:58:33;10.00;99.90
